createdAt,value
2019-01-17T00:00:48.219Z,54.79
2019-01-17T00:06:15.771Z,53.63
2019-01-17T00:11:33.329Z,52.66
2019-01-17T00:17:06.843Z,52.15
2019-01-17T00:22:37.131Z,51.40
2019-01-17T00:28:01.135Z,51.28
2019-01-17T00:33:31.786Z,50.72
2019-01-17T00:38:46.231Z,49.42
2019-01-17T00:44:16.670Z,49.52
2019-01-17T00:49:43.942Z,49.73
2019-01-17T00:55:15.308Z,49.12
2019-01-17T01:00:58.429Z,48.75
2019-01-17T01:06:26.003Z,48.07
2019-01-17T01:11:59.881Z,47.74
2019-01-17T01:17:21.232Z,48.59
2019-01-17T01:22:45.928Z,48.59
2019-01-17T01:28:10.975Z,48.41
2019-01-17T01:33:36.070Z,49.15
2019-01-17T01:38:53.415Z,49.88
2019-01-17T01:44:33.567Z,50.20
2019-01-17T01:50:01.232Z,50.33
2019-01-17T01:55:07.621Z,51.17
2019-01-17T02:00:14.877Z,51.66
2019-01-17T02:05:22.578Z,51.82
2019-01-17T02:10:28.598Z,52.16
2019-01-17T02:15:34.393Z,52.83
2019-01-17T02:20:40.661Z,52.83
2019-01-17T02:25:46.405Z,53.76
2019-01-17T02:30:52.476Z,54.31
2019-01-17T02:35:58.398Z,54.83
2019-01-17T02:41:06.623Z,55.45
2019-01-17T02:46:13.262Z,55.58
2019-01-17T02:51:19.147Z,56.05
2019-01-17T02:56:24.958Z,55.95
2019-01-17T03:01:31.132Z,55.75
2019-01-17T03:06:37.185Z,55.93
2019-01-17T03:11:43.022Z,55.68
2019-01-17T03:16:48.979Z,55.77
2019-01-17T03:21:55.319Z,55.53
2019-01-17T03:27:01.037Z,55.26
2019-01-17T03:32:06.771Z,55.30
2019-01-17T03:37:14.668Z,55.06
2019-01-17T03:42:20.613Z,55.02
2019-01-17T03:47:26.241Z,55.34
2019-01-17T03:52:31.913Z,55.98
2019-01-17T03:57:37.531Z,55.98
2019-01-17T04:02:43.112Z,56.03
2019-01-17T04:07:49.313Z,56.03
2019-01-17T04:12:55.530Z,55.75
2019-01-17T04:18:01.709Z,56.24
2019-01-17T04:23:07.338Z,56.45
2019-01-17T04:28:12.962Z,56.86
2019-01-17T04:33:21.990Z,57.02
2019-01-17T04:38:27.607Z,56.59
2019-01-17T04:43:33.219Z,56.69
2019-01-17T04:48:38.818Z,56.84
2019-01-17T04:53:44.414Z,56.67
2019-01-17T04:58:51.008Z,56.63
2019-01-17T05:03:58.534Z,57.08
2019-01-17T05:09:06.473Z,57.40
2019-01-17T05:14:12.117Z,57.62
2019-01-17T05:19:17.797Z,57.62
2019-01-17T05:24:23.552Z,57.59
2019-01-17T05:29:29.748Z,57.94
2019-01-17T05:34:39.599Z,58.26
2019-01-17T05:39:43.497Z,58.09
2019-01-17T05:44:49.405Z,58.48
2019-01-17T05:49:55.198Z,58.65
2019-01-17T05:55:01.200Z,58.65
2019-01-17T06:00:10.483Z,58.80
2019-01-17T06:05:16.736Z,59.16
2019-01-17T06:10:22.697Z,59.20
2019-01-17T06:15:30.655Z,59.09
2019-01-17T06:20:36.918Z,59.64
2019-01-17T06:25:42.796Z,59.33
2019-01-17T06:30:48.623Z,59.34
2019-01-17T06:35:54.494Z,58.56
2019-01-17T06:41:00.466Z,58.91
2019-01-17T06:46:09.595Z,58.37
2019-01-17T06:51:15.634Z,59.00
2019-01-17T06:56:21.875Z,58.82
2019-01-17T07:01:27.806Z,59.25
2019-01-17T07:06:33.779Z,58.76
2019-01-17T07:11:39.882Z,59.15
2019-01-17T07:16:45.687Z,59.15
2019-01-17T07:21:51.620Z,59.45
2019-01-17T07:26:57.374Z,59.84
2019-01-17T07:32:03.243Z,59.88
2019-01-17T07:37:09.125Z,59.92
2019-01-17T07:42:15.221Z,60.36
2019-01-17T07:47:20.939Z,60.09
2019-01-17T07:52:27.126Z,59.48
2019-01-17T07:57:33.078Z,59.27
2019-01-17T08:02:38.954Z,59.40
2019-01-17T08:07:45.154Z,59.59
2019-01-17T08:12:51.105Z,59.34
2019-01-17T08:17:57.004Z,60.79
2019-01-17T08:23:03.301Z,60.79
2019-01-17T08:28:09.289Z,59.41
2019-01-17T08:33:15.078Z,60.00
2019-01-17T08:38:21.736Z,59.10
2019-01-17T08:43:28.176Z,59.53
2019-01-17T08:48:34.335Z,59.47
2019-01-17T08:53:40.103Z,59.70
2019-01-17T08:58:46.410Z,59.43
2019-01-17T09:03:52.366Z,59.62
2019-01-17T09:08:58.414Z,59.56
2019-01-17T09:14:04.750Z,59.64
2019-01-17T09:19:10.482Z,59.45
2019-01-17T09:24:16.567Z,59.77
2019-01-17T09:29:22.451Z,59.78
2019-01-17T09:34:28.304Z,60.20
2019-01-17T09:39:34.082Z,60.66
2019-01-17T09:44:40.517Z,60.72
2019-01-17T09:49:46.411Z,60.77
2019-01-17T09:54:52.358Z,60.70
2019-01-17T09:59:58.417Z,60.93
2019-01-17T10:05:04.923Z,61.50
2019-01-17T10:10:15.584Z,61.30
2019-01-17T10:15:37.479Z,62.10
2019-01-17T10:21:24.616Z,61.99
2019-01-17T10:26:53.433Z,62.33
2019-01-17T10:32:30.061Z,62.64
2019-01-17T10:37:50.039Z,62.48
2019-01-17T10:43:36.887Z,62.44
2019-01-17T10:49:27.721Z,62.47
2019-01-17T10:55:11.078Z,62.47
2019-01-17T11:18:00.282Z,60.93
2019-01-17T11:23:26.920Z,60.26
2019-01-17T11:28:49.715Z,60.81
2019-01-17T11:34:44.713Z,60.42
2019-01-17T11:40:29.556Z,60.23
2019-01-17T11:46:01.854Z,60.36
2019-01-17T11:51:41.147Z,60.52
2019-01-17T11:57:30.829Z,59.78
2019-01-17T12:03:33.029Z,59.62
2019-01-17T12:08:38.658Z,60.17
2019-01-17T12:13:45.847Z,61.09
2019-01-17T12:18:54.697Z,60.88
2019-01-17T12:24:00.310Z,60.75
2019-01-17T12:29:06.165Z,61.42
2019-01-17T12:34:11.810Z,60.83
2019-01-17T12:39:17.893Z,61.04
2019-01-17T12:44:23.506Z,60.57
2019-01-17T12:49:29.089Z,61.55
2019-01-17T12:54:34.728Z,61.29
2019-01-17T12:59:40.343Z,61.38
2019-01-17T13:04:45.969Z,61.00
2019-01-17T13:09:51.578Z,61.17
2019-01-17T13:14:58.614Z,60.23
2019-01-17T13:20:09.935Z,61.60
2019-01-17T13:25:18.354Z,61.02
2019-01-17T13:30:24.804Z,61.33
2019-01-17T13:35:30.493Z,61.36
2019-01-17T13:40:36.151Z,62.44
2019-01-17T13:45:42.080Z,61.76
2019-01-17T13:50:47.701Z,61.02
2019-01-17T13:55:53.284Z,59.89
2019-01-17T14:00:58.875Z,60.00
2019-01-17T14:06:09.264Z,60.76
2019-01-17T14:11:15.041Z,59.52
2019-01-17T14:16:20.969Z,59.37
2019-01-17T14:21:26.766Z,59.33
2019-01-17T14:26:32.388Z,60.80
2019-01-17T14:31:38.092Z,60.46
2019-01-17T14:36:43.775Z,61.05
2019-01-17T14:41:49.647Z,60.76
2019-01-17T14:46:55.256Z,61.15
2019-01-17T14:52:01.722Z,61.15
2019-01-17T14:57:07.421Z,60.55
2019-01-17T15:02:13.469Z,60.55
2019-01-17T15:07:21.132Z,60.56
2019-01-17T15:12:26.834Z,60.56
2019-01-17T15:17:32.504Z,61.23
2019-01-17T15:22:38.290Z,60.82
2019-01-17T15:27:46.046Z,61.10
2019-01-17T15:32:54.926Z,60.73
2019-01-17T15:38:00.929Z,61.44
2019-01-17T15:43:08.440Z,60.98
2019-01-17T15:48:14.108Z,61.08
2019-01-17T15:53:20.756Z,61.51
2019-01-17T15:58:26.423Z,61.51
2019-01-17T16:03:32.183Z,61.95
2019-01-17T16:08:37.792Z,60.53
2019-01-17T16:13:44.531Z,60.11
2019-01-17T16:18:50.647Z,60.11
2019-01-17T16:23:56.338Z,60.21
2019-01-17T16:29:02.036Z,60.88
2019-01-17T16:34:07.685Z,60.96
2019-01-17T16:39:14.031Z,61.09
2019-01-17T16:44:19.746Z,61.27
2019-01-17T16:49:27.297Z,60.64
2019-01-17T16:54:35.910Z,59.96
2019-01-17T16:59:41.557Z,59.96
2019-01-17T17:04:48.864Z,59.83
2019-01-17T17:09:56.684Z,59.05
2019-01-17T17:15:06.078Z,59.51
2019-01-17T17:20:15.400Z,59.54
2019-01-17T17:25:24.022Z,59.45
2019-01-17T17:30:30.168Z,60.11
2019-01-17T17:35:35.912Z,60.00
2019-01-17T17:40:41.578Z,60.17
2019-01-17T17:45:47.323Z,60.39
2019-01-17T17:50:53.536Z,60.39
2019-01-17T17:55:59.517Z,60.54
2019-01-17T18:01:38.976Z,60.26
2019-01-17T18:06:45.071Z,60.09
2019-01-17T18:11:50.899Z,60.04
2019-01-17T18:16:58.794Z,59.43
2019-01-17T18:22:06.683Z,59.33
2019-01-17T18:27:13.693Z,59.28
2019-01-17T18:32:22.526Z,58.99
2019-01-17T18:37:28.261Z,58.75
2019-01-17T18:42:37.067Z,58.39
2019-01-17T18:47:43.245Z,58.40
2019-01-17T18:52:49.354Z,58.45
2019-01-17T18:57:55.525Z,59.18
2019-01-17T19:03:02.569Z,59.53
2019-01-17T19:08:13.720Z,59.12
2019-01-17T19:13:23.296Z,59.11
2019-01-17T19:18:37.564Z,64.45
2019-01-17T19:23:44.950Z,68.10
2019-01-17T19:28:54.809Z,68.25
2019-01-17T19:34:00.605Z,68.31
2019-01-17T19:39:13.936Z,68.98
2019-01-17T19:44:22.491Z,68.80
2019-01-17T19:49:31.327Z,69.34
2019-01-17T19:54:41.947Z,69.58
2019-01-17T19:59:49.126Z,70.40
2019-01-17T20:10:05.630Z,69.25
2019-01-17T20:15:13.519Z,68.68
2019-01-17T20:20:21.950Z,67.88
2019-01-17T20:25:28.080Z,68.26
2019-01-17T20:30:39.119Z,67.68
2019-01-17T20:35:47.757Z,67.02
2019-01-17T20:40:58.266Z,67.18
2019-01-17T20:46:05.047Z,66.75
2019-01-17T20:51:11.697Z,66.36
2019-01-17T20:56:17.508Z,66.56
2019-01-17T21:02:11.191Z,66.86
2019-01-17T21:07:18.378Z,66.33
2019-01-17T21:12:24.403Z,66.53
2019-01-17T21:17:30.296Z,66.69
2019-01-17T21:22:37.272Z,65.59
2019-01-17T21:27:45.325Z,66.35
2019-01-17T21:32:51.132Z,66.09
2019-01-17T21:38:00.426Z,66.09
2019-01-17T21:43:06.499Z,66.56
2019-01-17T21:48:12.183Z,67.12
2019-01-17T21:53:20.785Z,66.94
2019-01-17T21:58:26.829Z,67.01
2019-01-17T22:03:32.527Z,67.50
2019-01-17T22:08:38.196Z,66.51
2019-01-17T22:13:43.923Z,66.83
2019-01-17T22:18:49.570Z,66.57
2019-01-17T22:23:58.594Z,67.19
2019-01-17T22:29:05.743Z,67.00
2019-01-17T22:34:11.491Z,67.27
2019-01-17T22:39:17.145Z,66.73
2019-01-17T22:44:22.920Z,66.04
2019-01-17T22:49:30.399Z,66.18
2019-01-17T22:54:36.233Z,65.34
2019-01-17T22:59:41.877Z,64.98
2019-01-17T23:04:47.568Z,64.99
2019-01-17T23:09:53.239Z,64.73
2019-01-17T23:14:58.837Z,63.68
2019-01-17T23:20:05.347Z,62.85
2019-01-17T23:25:11.346Z,63.01
2019-01-17T23:30:23.649Z,63.53
2019-01-17T23:35:30.014Z,62.15
2019-01-17T23:40:35.645Z,61.70
2019-01-17T23:45:41.243Z,61.14
2019-01-17T23:56:09.731Z,61.07
